aviador You're here:

YWLM Decoded Metar

WILLIAMTOWN ARP in _UNIDENTIFIED
Report Time2017-08-18 14:00:00
UTC Time2017-08-18 14:24:19
Flight Rules vfr VFR
Wind290° at 18 kt
W.Decomp.*RWY 30: 16.7 kt HW 6.7 kt LCW
W.Rank290° ranks 2
Current wind is above 290° avg. (10.4)
Visibility9999 m
Phenomena:N/A
Clouds:N/A
Expected CloudBase > 4,400 ft AGL from Temp-Dew spread
CeilingNone
Temp11°C (ISA -4)
Dew Point00°C (47% RH)
AAT2.6°C
QNH1012 hPa
Density Alt-322 ft
Elevation30 ft
Report Wrong Elevation
Raw Report
METAR YWLM 181400Z AUTO 29018KT 9999 // NCD 11/00 Q1012=

Extra information for YWLM:More info

Metar Taf Metar & Taf Last 4 Metars F.Rules Stats Wind Profile Meteogram Temp Stats Airport Information Weather charts Add Link Nearby VenuesMetar ALERT Operation Metar Decoded Social comments